createdAt,value
2023-07-17T00:09:05.883Z,4.60
2023-07-17T00:24:08.958Z,4.40
2023-07-17T00:39:11.657Z,4.90
2023-07-17T00:54:18.132Z,4.70
2023-07-17T01:09:21.587Z,4.40
2023-07-17T01:24:24.246Z,4.00
2023-07-17T01:39:27.588Z,4.10
2023-07-17T01:54:30.254Z,4.10
2023-07-17T02:09:33.126Z,3.70
2023-07-17T02:24:35.935Z,3.80
2023-07-17T02:39:38.762Z,3.60
2023-07-17T02:54:41.767Z,3.90
2023-07-17T03:09:44.468Z,4.00
2023-07-17T03:24:48.003Z,3.90
2023-07-17T03:39:50.691Z,3.80
2023-07-17T03:54:54.585Z,3.60
2023-07-17T04:09:57.434Z,4.30
2023-07-17T04:25:00.509Z,4.30
2023-07-17T04:40:06.374Z,4.50
2023-07-17T04:55:09.554Z,3.50
2023-07-17T05:10:12.515Z,3.50
2023-07-17T05:25:15.273Z,3.10
2023-07-17T05:40:17.952Z,3.60
2023-07-17T05:55:21.169Z,3.30
2023-07-17T06:10:23.906Z,3.10
2023-07-17T06:25:27.438Z,3.20
2023-07-17T06:40:30.487Z,3.60
2023-07-17T06:55:33.505Z,3.70
2023-07-17T07:10:36.889Z,3.60
2023-07-17T07:25:39.601Z,4.50
2023-07-17T07:40:42.338Z,2.80
2023-07-17T07:55:45.081Z,2.90
2023-07-17T08:10:48.024Z,2.70
2023-07-17T08:25:50.827Z,2.70
2023-07-17T08:40:55.002Z,2.80
2023-07-17T08:55:58.467Z,3.40
2023-07-17T09:11:09.197Z,3.00
2023-07-17T09:26:16.165Z,3.30
2023-07-17T09:41:26.673Z,3.50
2023-07-17T09:56:32.006Z,3.70
2023-07-17T10:11:36.061Z,3.70
2023-07-17T10:26:38.897Z,3.20
2023-07-17T10:41:42.959Z,3.40
2023-07-17T10:56:47.704Z,3.80
2023-07-17T11:11:50.646Z,3.80
2023-07-17T11:26:55.045Z,3.60
2023-07-17T11:41:58.389Z,3.30
2023-07-17T11:57:01.574Z,3.50
2023-07-17T12:12:05.186Z,3.70
2023-07-17T12:27:08.633Z,4.00
2023-07-17T12:42:12.552Z,4.40
2023-07-17T12:57:16.041Z,3.90
2023-07-17T13:12:23.274Z,4.20
2023-07-17T13:27:30.297Z,4.50
2023-07-17T13:42:33.305Z,5.30
2023-07-17T13:57:36.017Z,4.10
2023-07-17T14:12:39.025Z,4.70
2023-07-17T14:27:41.749Z,4.80
2023-07-17T14:42:44.695Z,4.50
2023-07-17T14:57:47.601Z,4.30
2023-07-17T15:12:50.443Z,4.40
2023-07-17T15:27:53.267Z,4.40
2023-07-17T15:42:56.417Z,4.70
2023-07-17T15:57:59.280Z,4.10
2023-07-17T16:13:02.007Z,4.50
2023-07-17T16:28:04.913Z,4.70
2023-07-17T16:43:08.311Z,4.70
2023-07-17T16:58:11.392Z,4.50
2023-07-17T17:13:14.519Z,4.90
2023-07-17T17:28:17.348Z,5.90
2023-07-17T17:43:20.225Z,5.20
2023-07-17T17:58:25.105Z,5.40
2023-07-17T18:13:27.903Z,5.80
2023-07-17T18:28:30.595Z,5.20
2023-07-17T18:43:33.370Z,5.40
2023-07-17T18:58:39.117Z,6.40
2023-07-17T19:13:41.986Z,6.20
2023-07-17T19:28:45.603Z,6.20
2023-07-17T19:43:48.505Z,7.60
2023-07-17T19:58:51.561Z,6.20
2023-07-17T20:13:54.594Z,6.10
2023-07-17T20:28:57.446Z,6.30
2023-07-17T20:44:00.314Z,7.70
2023-07-17T20:59:03.716Z,7.50
2023-07-17T21:14:06.421Z,8.10
2023-07-17T21:29:09.288Z,8.80
2023-07-17T21:44:12.097Z,8.60
2023-07-17T21:59:15.260Z,9.20
2023-07-17T22:14:17.965Z,8.50
2023-07-17T22:29:20.798Z,7.90
2023-07-17T22:44:23.739Z,7.30
2023-07-17T22:59:26.536Z,6.60
2023-07-17T23:14:33.602Z,7.40
2023-07-17T23:29:38.631Z,6.50
2023-07-17T23:44:41.485Z,3.40
2023-07-17T23:59:45.390Z,3.70
